Time;durP1;ratioP1;P1;durP2;ratioP2;P2;SDS_P1;SDS_P2;PMS_P1;PMS_P2;Temp;Humidity;BMP_temperature;BMP_pressure;BME280_temperature;BME280_humidity;BME280_pressure;Samples;Min_cycle;Max_cycle;Signal;HPM_P1;HPM_P2
2023/03/06 00:01:28;;;;;;;6.03;0.65;;;3.50;99.90;;;;;;4973486;28;20619;-90
2023/03/06 00:04:15;;;;;;;2.67;0.50;;;3.60;99.90;;;;;;4985153;28;20098;-91
2023/03/06 00:07:01;;;;;;;3.03;0.40;;;3.50;99.90;;;;;;4978494;28;20047;-92
2023/03/06 00:09:47;;;;;;;3.10;0.45;;;3.50;99.90;;;;;;4966392;28;20137;-90
2023/03/06 00:12:33;;;;;;;1.65;0.38;;;3.50;99.90;;;;;;4970639;28;20415;-90
2023/03/06 00:15:20;;;;;;;1.67;0.40;;;3.50;99.90;;;;;;4957713;28;20051;-89
2023/03/06 00:18:06;;;;;;;3.15;0.45;;;3.50;99.90;;;;;;4957630;28;20488;-91
2023/03/06 00:20:52;;;;;;;5.55;0.63;;;3.50;99.90;;;;;;4957580;28;20046;-90
2023/03/06 00:23:40;;;;;;;2.97;0.30;;;3.50;99.90;;;;;;4973787;28;20050;-94
2023/03/06 00:26:26;;;;;;;3.55;0.50;;;3.50;99.90;;;;;;4974443;28;20086;-90
2023/03/06 00:29:12;;;;;;;2.42;0.30;;;3.50;99.90;;;;;;4971990;28;20046;-91
2023/03/06 00:31:58;;;;;;;2.38;0.40;;;3.50;99.90;;;;;;4986944;28;20057;-92
2023/03/06 00:34:48;;;;;;;2.20;0.25;;;3.50;99.90;;;;;;4974921;28;20137;-90
2023/03/06 00:37:35;;;;;;;1.25;0.30;;;3.40;99.90;;;;;;4972636;28;20053;-91
2023/03/06 00:40:21;;;;;;;1.63;0.28;;;3.40;99.90;;;;;;4977473;28;20047;-92
2023/03/06 00:43:07;;;;;;;2.40;1.05;;;3.50;99.90;;;;;;4957279;28;20411;-90
2023/03/06 00:45:53;;;;;;;4.07;0.45;;;3.40;99.90;;;;;;4972266;28;20856;-91
2023/03/06 00:48:39;;;;;;;1.13;0.30;;;3.40;99.90;;;;;;4969885;28;20055;-89
2023/03/06 00:51:25;;;;;;;0.77;0.20;;;3.40;99.90;;;;;;4975901;28;20062;-90
2023/03/06 00:54:11;;;;;;;3.15;0.50;;;3.40;99.90;;;;;;4975108;28;20061;-89
2023/03/06 00:56:57;;;;;;;1.67;0.55;;;3.50;99.90;;;;;;4991206;28;20050;-89
2023/03/06 00:59:44;;;;;;;4.20;0.50;;;3.50;99.90;;;;;;4990700;28;20061;-89
2023/03/06 01:02:31;;;;;;;2.28;0.30;;;3.50;99.90;;;;;;4973128;28;20113;-88
2023/03/06 01:05:17;;;;;;;2.13;0.10;;;3.40;99.90;;;;;;4990079;28;20053;-88
2023/03/06 01:08:04;;;;;;;2.60;0.20;;;3.40;99.90;;;;;;4976623;28;20057;-89
2023/03/06 01:10:50;;;;;;;1.67;0.20;;;3.30;99.90;;;;;;4975896;28;20189;-88
2023/03/06 01:13:36;;;;;;;2.70;0.40;;;3.30;99.90;;;;;;4959585;28;20054;-87
2023/03/06 01:16:22;;;;;;;0.98;0.15;;;3.20;99.90;;;;;;4963026;28;20043;-87
2023/03/06 01:19:08;;;;;;;0.38;0.13;;;3.10;99.90;;;;;;4994248;28;20664;-88
2023/03/06 01:21:54;;;;;;;1.30;0.20;;;3.10;99.90;;;;;;4994202;28;20059;-88
2023/03/06 01:24:40;;;;;;;2.13;0.20;;;3.10;99.90;;;;;;4986024;28;20268;-89
2023/03/06 01:27:26;;;;;;;0.73;0.20;;;3.10;99.90;;;;;;4980604;28;20051;-87
2023/03/06 01:30:12;;;;;;;1.25;0.30;;;3.00;99.90;;;;;;4995990;28;20085;-88
2023/03/06 01:32:58;;;;;;;1.80;0.20;;;3.00;99.90;;;;;;4979455;28;20051;-88
2023/03/06 01:35:45;;;;;;;1.13;0.40;;;3.00;99.90;;;;;;4980455;28;20058;-88
2023/03/06 01:38:31;;;;;;;2.05;0.60;;;2.90;99.90;;;;;;4978289;28;20747;-88
2023/03/06 01:41:19;;;;;;;3.25;0.82;;;2.90;99.90;;;;;;5000310;28;20054;-88
2023/03/06 01:44:05;;;;;;;2.33;0.93;;;2.90;99.90;;;;;;4964061;28;20078;-87
2023/03/06 01:46:51;;;;;;;5.75;1.45;;;2.80;99.90;;;;;;4977816;28;20053;-88
2023/03/06 01:49:40;;;;;;;5.82;1.17;;;2.80;99.90;;;;;;4994461;28;20046;-89
2023/03/06 01:52:31;;;;;;;7.35;1.83;;;2.80;99.90;;;;;;4987634;28;20091;-88
2023/03/06 01:55:25;;;;;;;5.70;1.23;;;2.80;99.90;;;;;;5003169;28;20042;-87
2023/03/06 01:58:16;;;;;;;5.65;1.88;;;2.70;99.90;;;;;;4984713;28;20065;-88
2023/03/06 02:01:02;;;;;;;4.47;1.58;;;2.70;99.90;;;;;;4996309;28;20042;-88
2023/03/06 02:03:49;;;;;;;3.45;1.50;;;2.70;99.90;;;;;;5004247;28;20109;-87
2023/03/06 02:06:38;;;;;;;3.70;1.63;;;2.60;99.90;;;;;;4996336;28;20046;-86
2023/03/06 02:09:28;;;;;;;3.33;1.40;;;2.60;99.90;;;;;;4980117;28;20114;-88
2023/03/06 02:12:17;;;;;;;3.90;1.50;;;2.60;99.90;;;;;;5010386;28;20085;-88
2023/03/06 02:15:04;;;;;;;3.25;1.23;;;2.60;99.90;;;;;;4995151;28;20074;-88
2023/03/06 02:17:51;;;;;;;9.20;2.80;;;2.60;99.90;;;;;;4994001;28;20054;-88
2023/03/06 02:20:51;;;;;;;4.07;1.65;;;2.50;99.90;;;;;;4978692;28;20235;-88
2023/03/06 02:24:14;;;;;;;5.00;1.58;;;2.50;99.90;;;;;;4977162;28;20054;-88
2023/03/06 02:27:03;;;;;;;4.65;1.35;;;2.40;99.90;;;;;;4983231;28;20050;-87
2023/03/06 02:29:49;;;;;;;4.45;1.73;;;2.30;99.90;;;;;;4995098;28;20065;-88
2023/03/06 02:32:35;;;;;;;4.57;1.67;;;2.20;99.90;;;;;;4975983;28;20050;-88
2023/03/06 02:35:28;;;;;;;4.70;2.00;;;2.20;99.90;;;;;;4993073;28;20054;-88
2023/03/06 02:38:18;;;;;;;5.55;2.30;;;2.10;99.90;;;;;;4992425;28;20077;-88
2023/03/06 02:41:06;;;;;;;5.15;1.90;;;2.10;99.90;;;;;;4980648;28;20152;-88
2023/03/06 02:43:52;;;;;;;7.18;1.90;;;2.10;99.90;;;;;;4998087;28;20057;-90
2023/03/06 02:46:38;;;;;;;4.43;1.67;;;2.10;99.90;;;;;;4992725;28;20050;-89
2023/03/06 02:49:25;;;;;;;6.63;2.28;;;2.10;99.90;;;;;;4976153;28;20137;-89
2023/03/06 02:52:11;;;;;;;6.20;2.08;;;2.00;99.90;;;;;;4996904;28;20062;-88
2023/03/06 02:54:57;;;;;;;4.72;1.77;;;2.00;99.90;;;;;;4975521;28;20109;-89
2023/03/06 02:57:43;;;;;;;5.25;2.05;;;2.00;99.90;;;;;;5002413;28;20506;-88
2023/03/06 03:00:29;;;;;;;6.85;2.20;;;2.10;99.90;;;;;;5002309;28;20499;-89
2023/03/06 03:03:16;;;;;;;5.55;2.40;;;2.10;99.90;;;;;;4992125;28;20056;-89
2023/03/06 03:06:04;;;;;;;7.20;2.78;;;2.00;99.90;;;;;;4991258;28;20522;-89
2023/03/06 03:08:50;;;;;;;7.57;2.90;;;2.10;99.90;;;;;;4977893;28;20479;-88
2023/03/06 03:11:36;;;;;;;6.35;2.85;;;2.10;99.90;;;;;;4961310;28;20076;-88
2023/03/06 03:14:23;;;;;;;7.22;2.88;;;2.00;99.90;;;;;;4996859;28;20050;-88
2023/03/06 03:17:09;;;;;;;6.90;3.60;;;2.00;99.90;;;;;;4982551;28;20112;-89
2023/03/06 03:19:56;;;;;;;6.20;2.53;;;2.00;99.90;;;;;;4993161;28;20057;-90
2023/03/06 03:22:42;;;;;;;6.57;2.45;;;1.90;99.90;;;;;;4990948;28;20153;-89
2023/03/06 03:25:28;;;;;;;5.82;2.75;;;1.90;99.90;;;;;;4974520;28;20062;-89
2023/03/06 03:28:14;;;;;;;10.18;3.10;;;1.90;99.90;;;;;;4992387;28;20053;-88
2023/03/06 03:31:05;;;;;;;7.78;2.90;;;1.90;99.90;;;;;;4994831;28;20054;-89
2023/03/06 03:33:51;;;;;;;9.75;4.18;;;1.80;99.90;;;;;;4986018;28;20050;-89
2023/03/06 03:36:37;;;;;;;5.22;2.20;;;1.80;99.90;;;;;;4966508;28;20082;-88
2023/03/06 03:39:23;;;;;;;8.10;2.80;;;1.80;99.90;;;;;;4990911;28;20060;-88
2023/03/06 03:42:09;;;;;;;5.43;2.50;;;1.70;99.90;;;;;;4974836;28;20085;-88
2023/03/06 03:44:55;;;;;;;4.93;2.17;;;1.70;99.90;;;;;;4991238;28;20046;-89
2023/03/06 03:47:42;;;;;;;5.38;1.55;;;1.70;99.90;;;;;;4978685;28;20046;-88
2023/03/06 03:50:28;;;;;;;4.75;1.85;;;1.70;99.90;;;;;;4977255;28;20149;-88
2023/03/06 03:53:14;;;;;;;3.45;1.48;;;1.70;99.90;;;;;;4972573;28;20511;-88
2023/03/06 03:56:00;;;;;;;5.13;2.03;;;1.70;99.90;;;;;;4960351;28;20570;-88
2023/03/06 03:58:46;;;;;;;3.88;1.48;;;1.60;99.90;;;;;;4989943;28;20061;-88
2023/03/06 04:01:32;;;;;;;9.93;2.88;;;1.60;99.90;;;;;;4978932;28;20065;-88
2023/03/06 04:04:18;;;;;;;5.13;1.90;;;1.60;99.90;;;;;;4977883;28;20112;-89
2023/03/06 04:07:04;;;;;;;3.63;1.60;;;1.60;99.90;;;;;;4989719;28;20046;-89
2023/03/06 04:09:50;;;;;;;3.45;1.58;;;1.60;99.90;;;;;;4990225;28;20435;-90
2023/03/06 04:12:36;;;;;;;5.97;1.33;;;1.60;99.90;;;;;;4990660;28;20507;-86
2023/03/06 04:15:23;;;;;;;4.25;1.20;;;1.60;99.90;;;;;;4989776;28;20054;-86
2023/03/06 04:18:09;;;;;;;4.65;1.38;;;1.60;99.90;;;;;;4973957;28;20081;-86
2023/03/06 04:20:55;;;;;;;6.40;1.80;;;1.60;99.90;;;;;;4995626;28;20050;-86
2023/03/06 04:23:41;;;;;;;4.63;1.33;;;1.60;99.90;;;;;;4987086;28;20066;-86
2023/03/06 04:26:27;;;;;;;4.55;1.90;;;1.60;99.90;;;;;;4989273;28;20055;-87
2023/03/06 04:29:13;;;;;;;4.32;1.45;;;1.60;99.90;;;;;;4973712;28;20059;-86
2023/03/06 04:31:59;;;;;;;4.93;1.75;;;1.60;99.90;;;;;;4973612;28;20046;-86
2023/03/06 04:34:45;;;;;;;3.78;1.27;;;1.60;99.90;;;;;;4973828;28;20062;-86
2023/03/06 04:37:31;;;;;;;4.68;2.03;;;1.60;99.90;;;;;;4981884;28;20050;-86
2023/03/06 04:40:20;;;;;;;5.93;2.40;;;1.60;99.90;;;;;;4991976;28;20050;-86
2023/03/06 04:43:06;;;;;;;7.30;2.10;;;1.60;99.90;;;;;;4959870;28;20415;-87
2023/03/06 04:45:52;;;;;;;3.58;1.33;;;1.60;99.90;;;;;;4990978;28;20526;-86
2023/03/06 04:48:38;;;;;;;4.72;1.80;;;1.60;99.90;;;;;;4990771;28;20659;-86
2023/03/06 04:51:24;;;;;;;4.63;1.77;;;1.50;99.90;;;;;;4990397;28;20139;-86
2023/03/06 04:54:10;;;;;;;7.22;2.47;;;1.50;99.90;;;;;;4992385;28;20065;-87
2023/03/06 04:56:57;;;;;;;4.53;1.83;;;1.50;99.90;;;;;;4978193;28;20120;-87
2023/03/06 04:59:43;;;;;;;4.40;1.85;;;1.50;99.90;;;;;;4973153;28;20057;-87
2023/03/06 05:02:29;;;;;;;4.13;1.40;;;1.40;99.90;;;;;;4973531;28;20418;-86
2023/03/06 05:05:17;;;;;;;4.35;1.50;;;1.50;99.90;;;;;;4973277;28;20077;-86
2023/03/06 05:08:03;;;;;;;3.17;1.20;;;1.40;99.90;;;;;;4973591;28;20042;-86
2023/03/06 05:10:58;;;;;;;3.95;1.50;;;1.40;99.90;;;;;;4973951;28;20573;-86
2023/03/06 05:13:44;;;;;;;6.75;1.80;;;1.40;99.90;;;;;;4973749;28;20070;-87
2023/03/06 05:16:30;;;;;;;7.38;1.70;;;1.30;99.90;;;;;;4992615;28;20066;-85
2023/03/06 05:19:16;;;;;;;3.83;1.40;;;1.30;99.90;;;;;;4973433;28;20169;-86
2023/03/06 05:22:02;;;;;;;3.05;1.40;;;1.30;99.90;;;;;;4973560;28;20068;-86
2023/03/06 05:24:48;;;;;;;5.38;2.00;;;1.30;99.90;;;;;;4973510;28;20399;-86
2023/03/06 05:27:34;;;;;;;5.03;2.03;;;1.30;99.90;;;;;;4973768;28;20422;-86
2023/03/06 05:30:22;;;;;;;4.93;2.13;;;1.30;99.90;;;;;;4959841;28;20088;-87
2023/03/06 05:33:08;;;;;;;6.10;1.85;;;1.30;99.90;;;;;;4976679;28;20055;-86
2023/03/06 05:35:54;;;;;;;5.53;2.15;;;1.30;99.90;;;;;;4990327;28;20055;-86
2023/03/06 05:38:40;;;;;;;4.07;1.58;;;1.20;99.90;;;;;;4973930;28;20057;-86
2023/03/06 05:41:26;;;;;;;5.07;1.70;;;1.20;99.90;;;;;;4959791;28;20599;-86
2023/03/06 05:44:12;;;;;;;5.22;2.28;;;1.20;99.90;;;;;;4972945;28;20047;-86
2023/03/06 05:46:58;;;;;;;5.15;2.00;;;1.20;99.90;;;;;;4978431;28;20100;-86
2023/03/06 05:49:44;;;;;;;5.35;1.90;;;1.20;99.90;;;;;;4973028;28;20475;-86
2023/03/06 05:52:30;;;;;;;6.85;1.95;;;1.20;99.90;;;;;;4972208;28;20058;-87
2023/03/06 05:55:18;;;;;;;5.53;1.80;;;1.20;99.90;;;;;;4972591;28;20082;-88
2023/03/06 05:58:04;;;;;;;4.88;1.92;;;1.10;99.90;;;;;;4990565;28;20051;-88
2023/03/06 06:00:51;;;;;;;4.28;1.70;;;1.10;99.90;;;;;;4961051;28;20058;-88
2023/03/06 06:03:37;;;;;;;3.72;1.60;;;1.00;99.90;;;;;;4980894;28;20054;-88
2023/03/06 06:06:23;;;;;;;5.78;1.95;;;1.00;99.90;;;;;;4976263;28;20090;-88
2023/03/06 06:09:09;;;;;;;3.97;1.85;;;1.00;99.90;;;;;;4976506;28;20050;-88
2023/03/06 06:11:59;;;;;;;4.97;1.80;;;0.90;99.90;;;;;;4976438;28;20058;-88
2023/03/06 06:14:45;;;;;;;5.18;1.40;;;0.90;99.90;;;;;;4975425;28;20519;-88
2023/03/06 06:17:31;;;;;;;6.60;2.30;;;0.80;99.90;;;;;;4979036;28;20062;-89
2023/03/06 06:20:18;;;;;;;6.57;1.98;;;0.80;99.90;;;;;;5000003;28;20050;-88
2023/03/06 06:23:04;;;;;;;6.05;2.15;;;0.70;99.90;;;;;;4993375;28;20054;-89
2023/03/06 06:25:50;;;;;;;5.22;1.40;;;0.60;99.90;;;;;;4963525;28;20054;-88
2023/03/06 06:28:36;;;;;;;6.72;1.88;;;0.60;99.90;;;;;;4975499;28;20462;-88
2023/03/06 06:31:22;;;;;;;5.25;1.90;;;0.60;99.90;;;;;;4976294;28;20058;-88
2023/03/06 06:34:10;;;;;;;6.65;1.70;;;0.60;99.90;;;;;;4992138;28;20042;-89
2023/03/06 06:36:56;;;;;;;4.68;1.80;;;0.60;99.90;;;;;;4996230;28;20408;-88
2023/03/06 06:39:42;;;;;;;4.05;1.67;;;0.60;99.90;;;;;;4972106;28;20054;-88
2023/03/06 06:42:28;;;;;;;5.97;1.85;;;0.70;99.90;;;;;;4993868;28;20050;-88
2023/03/06 06:45:14;;;;;;;5.05;1.77;;;0.70;99.90;;;;;;4978289;28;20085;-88
2023/03/06 06:48:01;;;;;;;4.28;1.67;;;0.70;99.90;;;;;;4962532;28;20058;-89
2023/03/06 06:50:54;;;;;;;6.93;2.28;;;0.70;99.90;;;;;;4992593;28;20110;-88
2023/03/06 06:53:40;;;;;;;5.68;2.38;;;0.80;99.90;;;;;;4978242;28;20797;-89
2023/03/06 06:56:26;;;;;;;7.20;2.22;;;0.90;99.90;;;;;;4992327;28;20047;-88
2023/03/06 06:59:13;;;;;;;8.60;2.70;;;1.00;99.90;;;;;;4990794;28;20050;-88
2023/03/06 07:01:59;;;;;;;5.93;2.50;;;1.00;99.90;;;;;;4991386;28;20053;-88
2023/03/06 07:04:45;;;;;;;5.93;2.10;;;1.20;99.90;;;;;;4974931;28;20498;-88
2023/03/06 07:07:34;;;;;;;7.97;2.70;;;1.30;99.90;;;;;;4961310;28;20495;-89
2023/03/06 07:10:20;;;;;;;5.15;2.10;;;1.40;99.90;;;;;;4961034;28;20103;-89
2023/03/06 07:13:06;;;;;;;7.88;2.25;;;1.40;99.90;;;;;;4974252;28;20058;-88
2023/03/06 07:15:52;;;;;;;5.35;1.90;;;1.40;99.90;;;;;;4985046;28;20054;-88
2023/03/06 07:18:38;;;;;;;6.75;2.92;;;1.60;99.90;;;;;;4963526;28;20062;-89
2023/03/06 07:21:25;;;;;;;7.90;2.58;;;1.70;99.90;;;;;;4961115;28;20068;-87
2023/03/06 07:24:11;;;;;;;7.15;2.05;;;1.80;99.90;;;;;;4978505;28;20050;-87
2023/03/06 07:26:57;;;;;;;7.22;2.40;;;2.00;99.90;;;;;;4961386;28;20380;-87
2023/03/06 07:29:43;;;;;;;7.25;2.22;;;2.20;99.90;;;;;;4991910;28;20065;-88
2023/03/06 07:32:29;;;;;;;7.50;2.10;;;2.30;99.90;;;;;;4975539;28;20096;-88
2023/03/06 07:35:16;;;;;;;5.32;1.83;;;2.50;99.90;;;;;;4975585;28;20058;-88
2023/03/06 07:38:02;;;;;;;7.10;2.58;;;2.50;99.90;;;;;;5003185;28;20104;-88
2023/03/06 07:40:50;;;;;;;5.63;2.22;;;2.60;99.90;;;;;;4976143;28;20403;-87
2023/03/06 07:43:36;;;;;;;20.40;2.70;;;2.70;99.90;;;;;;4961340;28;20054;-88
2023/03/06 07:46:22;;;;;;;7.07;2.03;;;2.80;99.90;;;;;;4975121;28;20471;-88
2023/03/06 07:49:08;;;;;;;3.92;1.42;;;2.90;99.90;;;;;;4974632;28;20077;-88
2023/03/06 07:51:54;;;;;;;6.85;2.05;;;3.00;99.90;;;;;;4974349;28;20062;-88
2023/03/06 07:54:40;;;;;;;4.40;1.55;;;3.10;99.90;;;;;;4973117;28;20452;-88
2023/03/06 07:57:26;;;;;;;3.92;1.15;;;3.20;99.90;;;;;;4973529;28;20046;-88
2023/03/06 08:00:14;;;;;;;7.25;1.88;;;3.30;99.90;;;;;;4961339;28;20050;-89
2023/03/06 08:03:00;;;;;;;5.68;1.30;;;3.40;99.90;;;;;;4991066;28;20081;-89
2023/03/06 08:05:47;;;;;;;9.45;1.55;;;3.50;99.90;;;;;;4976255;28;20054;-89
2023/03/06 08:08:34;;;;;;;3.95;1.00;;;3.60;99.90;;;;;;4982454;28;20053;-90
2023/03/06 08:11:23;;;;;;;9.02;2.03;;;3.60;99.90;;;;;;4977156;28;20053;-89
2023/03/06 08:14:09;;;;;;;4.15;1.17;;;3.70;99.90;;;;;;4992425;28;20050;-87
2023/03/06 08:16:55;;;;;;;3.25;0.95;;;3.60;99.90;;;;;;4991283;28;20141;-88
2023/03/06 08:19:41;;;;;;;4.53;1.73;;;3.70;99.90;;;;;;4960879;28;20050;-89
2023/03/06 08:22:28;;;;;;;3.92;1.00;;;3.80;99.90;;;;;;4990748;28;20046;-87
2023/03/06 08:25:14;;;;;;;5.13;1.17;;;3.80;99.90;;;;;;4975589;28;20069;-89
2023/03/06 08:28:00;;;;;;;6.75;1.20;;;3.90;99.90;;;;;;4995120;28;20514;-86
2023/03/06 08:30:46;;;;;;;5.63;1.17;;;4.20;99.90;;;;;;5001025;28;20050;-88
2023/03/06 08:33:32;;;;;;;5.57;1.02;;;4.20;99.90;;;;;;4975434;28;20085;-89
2023/03/06 08:36:19;;;;;;;4.53;1.08;;;4.30;99.90;;;;;;4976890;28;20054;-90
2023/03/06 08:39:05;;;;;;;8.18;1.08;;;4.50;99.90;;;;;;4978080;28;20058;-88
2023/03/06 08:41:51;;;;;;;6.57;1.15;;;4.80;99.90;;;;;;4974568;28;20054;-88
2023/03/06 08:44:37;;;;;;;5.82;0.50;;;5.00;99.90;;;;;;4992125;28;20093;-87
2023/03/06 08:47:23;;;;;;;3.50;0.38;;;5.10;99.90;;;;;;4990708;28;20050;-87
2023/03/06 08:50:10;;;;;;;9.98;0.65;;;5.10;99.90;;;;;;4996244;28;20102;-87
2023/03/06 08:52:57;;;;;;;1.58;0.20;;;5.20;99.90;;;;;;4993320;28;20085;-88
2023/03/06 08:55:43;;;;;;;2.63;0.30;;;5.20;99.90;;;;;;4991670;28;20101;-88
2023/03/06 08:58:29;;;;;;;3.35;0.40;;;5.20;99.90;;;;;;4974159;28;20141;-88
2023/03/06 09:01:21;;;;;;;3.05;0.60;;;5.30;99.90;;;;;;4960914;28;20098;-88
2023/03/06 09:04:09;;;;;;;5.60;0.50;;;5.20;99.90;;;;;;4976989;28;20051;-88
2023/03/06 09:06:55;;;;;;;15.07;1.52;;;5.20;99.90;;;;;;4973295;28;20356;-88
2023/03/06 09:09:42;;;;;;;3.97;0.40;;;5.20;99.90;;;;;;4994090;28;20564;-88
2023/03/06 09:12:28;;;;;;;1.73;0.45;;;5.30;99.90;;;;;;4998187;28;20042;-89
2023/03/06 09:15:15;;;;;;;5.40;0.35;;;5.40;99.90;;;;;;4990608;28;20058;-87
2023/03/06 09:18:01;;;;;;;4.30;0.55;;;5.50;99.90;;;;;;4974234;28;20058;-87
2023/03/06 09:20:47;;;;;;;6.22;0.57;;;5.60;99.90;;;;;;4974914;28;20762;-87
2023/03/06 09:23:33;;;;;;;4.18;0.43;;;5.70;99.90;;;;;;4990442;28;20114;-88
2023/03/06 09:26:19;;;;;;;2.25;0.35;;;5.70;99.90;;;;;;4972259;28;20509;-87
2023/03/06 09:29:06;;;;;;;3.35;0.40;;;5.80;99.90;;;;;;4997793;28;20047;-88
2023/03/06 09:31:53;;;;;;;1.65;0.40;;;5.90;99.90;;;;;;4961549;28;20057;-87
2023/03/06 09:34:39;;;;;;;2.85;0.60;;;6.00;99.90;;;;;;4977637;28;20046;-88
2023/03/06 09:37:25;;;;;;;4.47;0.35;;;6.20;99.90;;;;;;4993935;28;20046;-89
2023/03/06 09:40:24;;;;;;;2.88;0.40;;;6.20;99.90;;;;;;4978609;28;20415;-88
2023/03/06 09:43:18;;;;;;;1.88;0.50;;;6.20;99.90;;;;;;4993489;28;20118;-88
2023/03/06 09:46:23;;;;;;;1.80;0.68;;;6.40;99.90;;;;;;5009660;28;20057;-87
2023/03/06 09:49:43;;;;;;;1.52;0.30;;;6.50;99.90;;;;;;5011299;28;20058;-87
2023/03/06 09:52:37;;;;;;;1.98;0.38;;;6.60;99.90;;;;;;5003772;28;20054;-87
2023/03/06 09:55:26;;;;;;;8.93;1.67;;;6.80;99.90;;;;;;5005895;28;20073;-86
2023/03/06 09:58:17;;;;;;;2.53;0.32;;;6.80;99.90;;;;;;4996620;28;20132;-87
2023/03/06 10:01:13;;;;;;;4.43;0.32;;;7.00;99.90;;;;;;4999004;28;20133;-88
2023/03/06 10:04:11;;;;;;;3.42;0.50;;;7.10;99.90;;;;;;4980191;28;20515;-87
2023/03/06 10:07:02;;;;;;;1.33;0.32;;;7.20;99.90;;;;;;4999143;28;20867;-87
2023/03/06 10:10:03;;;;;;;4.88;0.50;;;7.30;99.90;;;;;;4978955;28;20121;-87
2023/03/06 10:13:02;;;;;;;2.90;0.55;;;7.30;99.90;;;;;;4996791;28;20047;-87
2023/03/06 10:15:49;;;;;;;7.97;0.68;;;7.40;99.90;;;;;;4985091;28;20046;-88
2023/03/06 10:18:37;;;;;;;4.68;0.82;;;7.40;99.90;;;;;;4994896;28;20141;-87
2023/03/06 10:21:28;;;;;;;6.45;0.57;;;7.30;99.90;;;;;;4994438;28;20407;-88
2023/03/06 10:24:26;;;;;;;3.05;0.50;;;7.10;99.90;;;;;;4963202;28;20139;-88
2023/03/06 10:27:33;;;;;;;2.80;0.40;;;7.10;99.90;;;;;;4964796;28;20057;-87
2023/03/06 10:30:22;;;;;;;2.80;0.25;;;7.00;99.90;;;;;;4993784;28;20054;-88
2023/03/06 10:33:29;;;;;;;4.78;0.40;;;7.10;99.90;;;;;;4976362;28;20054;-87
2023/03/06 10:36:17;;;;;;;2.75;0.50;;;7.60;99.90;;;;;;4980911;28;20066;-89
2023/03/06 10:39:12;;;;;;;3.47;0.98;;;8.00;99.90;;;;;;4994966;28;20392;-88
2023/03/06 10:41:59;;;;;;;5.50;0.40;;;8.40;99.90;;;;;;4963480;28;20050;-88
2023/03/06 10:44:45;;;;;;;3.58;0.57;;;9.00;99.90;;;;;;4979395;28;20521;-88
2023/03/06 10:47:36;;;;;;;4.18;0.45;;;9.30;99.90;;;;;;4993626;28;20141;-89
2023/03/06 10:50:26;;;;;;;1.05;0.38;;;9.70;99.90;;;;;;4995015;28;20521;-88
2023/03/06 10:53:21;;;;;;;1.55;0.40;;;10.30;99.90;;;;;;4971735;28;20126;-88
2023/03/06 10:56:08;;;;;;;2.63;0.47;;;10.20;98.80;;;;;;4988580;28;20439;-88
2023/03/06 10:59:15;;;;;;;10.73;0.57;;;10.90;99.90;;;;;;4981175;28;20062;-88
2023/03/06 11:02:36;;;;;;;3.85;0.82;;;11.00;95.50;;;;;;4959577;28;20122;-88
2023/03/06 11:05:22;;;;;;;3.70;0.47;;;10.60;97.50;;;;;;4970928;28;20060;-88
2023/03/06 11:08:20;;;;;;;1.98;0.60;;;9.80;98.50;;;;;;4972219;28;20480;-87
2023/03/06 11:11:10;;;;;;;4.22;1.88;;;9.20;97.90;;;;;;4972087;28;20042;-88
2023/03/06 11:13:57;;;;;;;3.75;0.85;;;8.70;99.20;;;;;;4973126;28;20404;-89
2023/03/06 11:16:51;;;;;;;4.35;0.70;;;8.20;99.50;;;;;;4977446;28;20043;-88
2023/03/06 11:19:37;;;;;;;4.88;0.68;;;8.00;99.90;;;;;;4972878;28;20058;-88
2023/03/06 11:22:23;;;;;;;4.03;0.60;;;7.60;99.40;;;;;;4973474;28;20050;-88
2023/03/06 11:25:13;;;;;;;5.15;0.70;;;8.10;99.90;;;;;;4974072;28;20518;-89
2023/03/06 11:28:17;;;;;;;6.07;0.68;;;9.00;99.70;;;;;;4972508;28;20090;-88
2023/03/06 11:31:10;;;;;;;3.28;0.43;;;8.90;97.50;;;;;;4973004;28;20141;-89
2023/03/06 11:34:22;;;;;;;3.97;0.47;;;8.50;98.20;;;;;;4971799;28;20077;-87
2023/03/06 11:37:19;;;;;;;2.95;0.40;;;8.90;97.80;;;;;;4977768;28;20510;-89
2023/03/06 11:40:19;;;;;;;2.22;0.60;;;8.90;98.30;;;;;;4977620;28;20073;-88
2023/03/06 11:43:28;;;;;;;2.50;0.55;;;9.10;96.60;;;;;;4972415;28;20144;-89
2023/03/06 11:46:21;;;;;;;2.50;0.50;;;9.70;97.10;;;;;;4972298;28;20049;-89
2023/03/06 11:49:36;;;;;;;2.85;0.60;;;10.80;96.10;;;;;;4971295;28;20050;-89
2023/03/06 11:52:53;;;;;;;4.65;0.43;;;10.90;94.20;;;;;;4957047;28;20145;-89
2023/03/06 11:55:54;;;;;;;3.78;0.50;;;12.40;92.00;;;;;;4975997;28;20476;-88
2023/03/06 11:59:26;;;;;;;2.38;0.32;;;12.90;92.10;;;;;;4970832;28;20051;-88
2023/03/06 12:02:45;;;;;;;2.00;0.60;;;13.00;90.10;;;;;;4961978;28;20047;-88
2023/03/06 12:06:14;;;;;;;3.13;0.75;;;13.70;88.80;;;;;;4971153;28;20574;-88
2023/03/06 12:09:12;;;;;;;1.63;0.47;;;13.40;84.10;;;;;;4958082;28;20567;-89
2023/03/06 12:12:01;;;;;;;2.08;0.50;;;14.30;86.30;;;;;;4976440;28;20133;-88
2023/03/06 12:15:21;;;;;;;2.10;0.43;;;14.40;84.30;;;;;;4971300;28;20167;-87
2023/03/06 12:18:50;;;;;;;1.80;0.60;;;14.60;81.90;;;;;;4972609;28;20050;-87
2023/03/06 12:22:02;;;;;;;1.65;0.47;;;14.50;77.70;;;;;;4984427;28;20065;-88
2023/03/06 12:25:26;;;;;;;3.15;0.60;;;13.70;78.70;;;;;;4972577;28;20047;-88
2023/03/06 12:28:37;;;;;;;5.65;1.08;;;13.00;80.20;;;;;;4985709;28;20438;-87
2023/03/06 12:31:58;;;;;;;2.50;0.50;;;12.10;84.80;;;;;;4985551;28;20578;-89
2023/03/06 12:34:59;;;;;;;1.80;0.40;;;11.20;86.10;;;;;;4956705;28;20082;-89
2023/03/06 12:37:54;;;;;;;3.25;1.00;;;10.70;89.10;;;;;;4971914;28;20057;-89
2023/03/06 12:41:01;;;;;;;1.57;0.50;;;10.60;88.00;;;;;;4971969;28;20487;-88
2023/03/06 12:43:56;;;;;;;2.10;0.50;;;10.60;86.20;;;;;;4971095;28;20089;-89
2023/03/06 12:46:58;;;;;;;4.45;0.40;;;10.50;87.80;;;;;;4972183;28;20435;-88
2023/03/06 12:50:01;;;;;;;2.72;0.50;;;10.30;89.40;;;;;;4971594;28;20058;-89
2023/03/06 12:52:48;;;;;;;3.08;0.40;;;10.40;88.30;;;;;;4970203;28;20047;-89
2023/03/06 12:55:45;;;;;;;2.97;0.52;;;10.50;90.10;;;;;;4975652;28;20047;-88
2023/03/06 12:58:48;;;;;;;6.88;0.70;;;10.60;90.20;;;;;;4960352;28;20061;-88
2023/03/06 13:01:42;;;;;;;2.88;0.52;;;10.30;87.20;;;;;;4970520;28;20055;-89
2023/03/06 13:05:12;;;;;;;2.03;0.40;;;10.40;87.50;;;;;;4972174;28;20042;-89
2023/03/06 13:08:11;;;;;;;3.50;0.50;;;10.50;86.70;;;;;;4915949;29;20066;-88
2023/03/06 13:11:26;;;;;;;3.88;0.77;;;10.40;84.20;;;;;;4970953;28;20073;-88
2023/03/06 13:14:22;;;;;;;2.47;0.47;;;10.30;83.30;;;;;;4977945;28;20392;-87
2023/03/06 13:17:24;;;;;;;1.70;0.38;;;10.80;85.50;;;;;;4978587;28;20534;-88
2023/03/06 13:20:13;;;;;;;2.40;0.40;;;10.60;86.60;;;;;;4975396;28;20047;-89
2023/03/06 13:23:32;;;;;;;2.53;0.38;;;10.40;87.10;;;;;;4975948;28;20094;-88
2023/03/06 13:26:23;;;;;;;1.55;0.40;;;10.30;86.10;;;;;;4962982;28;20049;-87
2023/03/06 13:29:35;;;;;;;1.30;0.40;;;10.00;88.80;;;;;;4974123;28;20051;-87
2023/03/06 13:32:29;;;;;;;1.83;0.57;;;9.80;90.30;;;;;;4977223;28;20487;-88
2023/03/06 13:35:41;;;;;;;1.80;0.30;;;9.60;90.80;;;;;;4973657;28;20054;-88
2023/03/06 13:38:33;;;;;;;2.45;0.50;;;9.30;91.70;;;;;;4965223;28;20146;-88
2023/03/06 13:41:21;;;;;;;2.35;0.77;;;9.00;91.60;;;;;;4974598;28;20534;-87
2023/03/06 13:44:23;;;;;;;1.63;0.40;;;9.10;93.00;;;;;;4974384;28;20086;-88
2023/03/06 13:47:20;;;;;;;3.08;0.57;;;8.60;92.40;;;;;;4975534;28;20061;-88
2023/03/06 13:50:25;;;;;;;2.88;1.00;;;8.30;93.10;;;;;;4974287;28;20214;-87
2023/03/06 13:53:24;;;;;;;2.67;0.45;;;8.00;94.00;;;;;;4973835;28;20518;-88
2023/03/06 13:56:51;;;;;;;3.55;0.60;;;7.80;95.10;;;;;;4960903;28;20114;-87
2023/03/06 13:59:59;;;;;;;1.70;0.35;;;7.70;95.90;;;;;;4969950;28;20180;-88
2023/03/06 14:03:20;;;;;;;3.72;0.55;;;7.50;96.10;;;;;;4994086;28;20133;-87
2023/03/06 14:06:34;;;;;;;2.17;0.60;;;7.50;96.50;;;;;;4977187;28;20826;-87
2023/03/06 14:09:42;;;;;;;2.70;0.43;;;7.30;96.70;;;;;;4975883;28;20395;-87
2023/03/06 14:12:36;;;;;;;5.63;0.75;;;7.20;97.10;;;;;;4973550;28;20047;-87
2023/03/06 14:15:27;;;;;;;5.00;0.90;;;7.10;97.80;;;;;;4974307;28;20404;-87
2023/03/06 14:18:19;;;;;;;5.38;0.57;;;7.10;98.00;;;;;;4959451;28;20294;-87
2023/03/06 14:21:12;;;;;;;7.13;0.60;;;7.10;97.90;;;;;;4976893;28;20098;-87
2023/03/06 14:24:02;;;;;;;2.03;0.60;;;7.10;97.70;;;;;;4994975;28;20085;-87
2023/03/06 14:26:50;;;;;;;2.67;0.55;;;7.10;98.00;;;;;;4959269;28;20082;-88
2023/03/06 14:29:37;;;;;;;5.00;1.00;;;7.10;98.60;;;;;;4973484;28;20057;-87
2023/03/06 14:32:23;;;;;;;2.92;0.70;;;7.00;99.00;;;;;;4974114;28;20047;-88
2023/03/06 14:35:23;;;;;;;8.00;0.98;;;6.90;99.40;;;;;;4959345;28;20094;-88
2023/03/06 14:38:13;;;;;;;4.15;0.80;;;6.90;99.90;;;;;;4972595;28;20097;-87
2023/03/06 14:41:00;;;;;;;3.13;0.60;;;6.90;99.90;;;;;;4974738;28;20054;-88
2023/03/06 14:43:46;;;;;;;4.28;0.80;;;6.80;99.90;;;;;;4975437;28;20051;-87
2023/03/06 14:46:32;;;;;;;4.85;1.50;;;6.80;99.90;;;;;;4976292;28;20047;-88
2023/03/06 14:49:20;;;;;;;3.92;0.85;;;6.70;99.90;;;;;;4958448;28;20043;-87
2023/03/06 14:52:18;;;;;;;3.15;0.80;;;6.80;99.90;;;;;;4981552;28;20465;-88
2023/03/06 14:55:13;;;;;;;2.33;0.60;;;6.80;99.90;;;;;;4992931;28;20123;-88
2023/03/06 14:58:33;;;;;;;5.97;0.90;;;6.70;99.80;;;;;;4992667;28;20146;-87
2023/03/06 15:01:37;;;;;;;2.83;0.80;;;6.60;99.30;;;;;;4994435;28;20049;-88